Time;durP1;ratioP1;P1;durP2;ratioP2;P2;SDS_P1;SDS_P2;PMS_P1;PMS_P2;Temp;Humidity;BMP_temperature;BMP_pressure;BME280_temperature;BME280_humidity;BME280_pressure;Samples;Min_cycle;Max_cycle;Signal;HPM_P1;HPM_P2
2020/12/16 00:01:05;;;;;;;24.33;18.03;;;9.90;99.90;;;;;;9986821;29;20215;-83
2020/12/16 00:06:26;;;;;;;24.00;18.13;;;9.90;99.90;;;;;;9985148;29;20241;-83
2020/12/16 00:11:49;;;;;;;23.27;17.90;;;9.80;99.90;;;;;;9984660;29;20234;-83
2020/12/16 00:17:12;;;;;;;22.57;17.50;;;9.80;99.90;;;;;;9986135;29;20579;-83
2020/12/16 00:22:38;;;;;;;25.40;18.23;;;9.80;99.90;;;;;;9988567;29;20223;-84
2020/12/16 00:28:00;;;;;;;23.33;17.50;;;9.80;99.90;;;;;;9987836;29;20284;-84
2020/12/16 00:33:22;;;;;;;23.73;18.50;;;9.80;99.90;;;;;;9986605;29;20233;-84
2020/12/16 00:38:45;;;;;;;22.33;17.23;;;9.80;99.90;;;;;;9990496;29;20198;-82
2020/12/16 00:44:08;;;;;;;26.60;18.40;;;9.80;99.90;;;;;;9993699;29;20223;-83
2020/12/16 00:49:29;;;;;;;23.37;16.73;;;9.80;99.90;;;;;;9993138;29;20221;-84
2020/12/16 00:54:51;;;;;;;21.80;16.83;;;9.70;99.90;;;;;;9993303;29;20210;-83
2020/12/16 01:00:16;;;;;;;26.33;18.40;;;9.70;99.90;;;;;;9986299;29;20230;-83
2020/12/16 01:05:37;;;;;;;25.67;18.73;;;9.70;99.90;;;;;;9986746;29;20206;-83
2020/12/16 01:10:59;;;;;;;25.33;17.73;;;9.60;99.90;;;;;;9986423;29;20234;-83
2020/12/16 01:16:22;;;;;;;25.20;18.33;;;9.50;99.90;;;;;;9986317;29;20194;-83
2020/12/16 01:21:44;;;;;;;26.80;18.73;;;9.60;99.90;;;;;;9986306;29;20591;-83
2020/12/16 01:27:05;;;;;;;26.87;18.97;;;9.60;99.90;;;;;;9986152;29;20213;-83
2020/12/16 01:32:28;;;;;;;28.97;19.57;;;9.70;99.90;;;;;;9985618;29;20213;-84
2020/12/16 01:37:51;;;;;;;28.17;18.93;;;9.60;99.90;;;;;;9984428;29;20749;-83
2020/12/16 01:43:14;;;;;;;29.63;19.20;;;9.60;99.90;;;;;;9993916;29;20326;-81
2020/12/16 01:48:37;;;;;;;29.70;20.47;;;9.50;99.90;;;;;;10010803;29;20272;-81
2020/12/16 01:53:59;;;;;;;28.87;20.63;;;9.50;99.90;;;;;;10010092;29;20217;-82
2020/12/16 01:59:22;;;;;;;29.13;21.27;;;9.50;99.90;;;;;;10005166;29;20572;-83
2020/12/16 02:04:48;;;;;;;28.00;19.13;;;9.50;99.90;;;;;;9986636;29;20350;-83
2020/12/16 02:10:10;;;;;;;30.87;20.50;;;9.70;99.90;;;;;;9987492;29;20245;-83
2020/12/16 02:15:31;;;;;;;33.47;20.87;;;9.60;99.90;;;;;;9989669;29;20257;-85
2020/12/16 02:20:54;;;;;;;29.63;20.43;;;9.60;99.90;;;;;;10021565;29;20262;-84
2020/12/16 02:26:17;;;;;;;33.23;20.37;;;9.70;99.90;;;;;;10023153;29;20201;-83
2020/12/16 02:31:40;;;;;;;30.33;21.13;;;9.70;99.90;;;;;;10004444;29;20221;-84
2020/12/16 02:37:01;;;;;;;34.27;20.90;;;9.70;99.90;;;;;;9985850;29;20230;-84
2020/12/16 02:42:26;;;;;;;29.90;20.43;;;9.70;99.90;;;;;;9985643;29;20240;-83
2020/12/16 02:47:48;;;;;;;31.40;21.20;;;9.60;99.90;;;;;;9984085;29;20217;-84
2020/12/16 02:53:10;;;;;;;29.13;21.33;;;9.60;99.90;;;;;;9986161;29;20217;-84
2020/12/16 02:58:32;;;;;;;30.40;21.67;;;9.60;99.90;;;;;;9984810;29;20209;-83
2020/12/16 03:03:54;;;;;;;31.57;21.07;;;9.60;99.90;;;;;;9984063;29;20255;-84
2020/12/16 03:09:16;;;;;;;30.47;20.90;;;9.60;99.90;;;;;;9984570;29;20727;-84
2020/12/16 03:14:39;;;;;;;29.20;20.57;;;9.60;99.90;;;;;;9983459;29;20222;-82
2020/12/16 03:20:01;;;;;;;29.70;20.73;;;9.60;99.90;;;;;;9984749;29;20222;-83
2020/12/16 03:25:22;;;;;;;30.00;21.43;;;9.60;99.90;;;;;;9983548;29;20202;-83
2020/12/16 03:30:45;;;;;;;34.57;23.20;;;9.60;99.90;;;;;;9983412;29;20230;-82
2020/12/16 03:36:07;;;;;;;30.60;20.80;;;9.60;99.90;;;;;;9980602;29;20912;-82
2020/12/16 03:41:28;;;;;;;30.90;21.60;;;9.60;99.90;;;;;;9952402;29;20225;-82
2020/12/16 03:46:52;;;;;;;30.87;20.67;;;9.60;99.90;;;;;;9953243;29;20218;-82
2020/12/16 03:52:14;;;;;;;33.43;22.50;;;9.60;99.90;;;;;;9964904;29;20214;-82
2020/12/16 03:57:35;;;;;;;31.60;21.93;;;9.50;99.90;;;;;;9984885;29;20198;-82
2020/12/16 04:02:58;;;;;;;30.87;21.87;;;9.50;99.90;;;;;;9985656;29;20220;-82
2020/12/16 04:08:20;;;;;;;29.97;20.77;;;9.60;99.90;;;;;;9986273;29;20217;-83
2020/12/16 04:13:43;;;;;;;33.73;21.23;;;9.60;99.90;;;;;;9988703;29;20221;-82
2020/12/16 04:19:05;;;;;;;29.87;20.70;;;9.60;99.90;;;;;;9993190;29;20201;-82
2020/12/16 04:24:27;;;;;;;31.43;21.47;;;9.60;99.90;;;;;;9989074;29;20246;-82
2020/12/16 04:29:49;;;;;;;34.00;21.33;;;9.40;99.90;;;;;;9992316;29;20213;-83
2020/12/16 04:35:11;;;;;;;28.97;20.77;;;9.30;99.90;;;;;;9991366;29;20576;-81
2020/12/16 04:40:33;;;;;;;30.87;19.90;;;9.40;99.90;;;;;;9948963;29;20222;-81
2020/12/16 04:45:55;;;;;;;29.77;20.57;;;9.30;99.90;;;;;;9942147;29;20213;-82
2020/12/16 04:51:17;;;;;;;33.57;20.40;;;9.20;99.90;;;;;;9973707;29;20634;-82
2020/12/16 04:56:41;;;;;;;31.97;20.63;;;9.10;99.90;;;;;;9941902;29;20206;-82
2020/12/16 05:02:04;;;;;;;33.37;20.33;;;9.10;99.90;;;;;;9947680;29;20675;-82
2020/12/16 05:07:30;;;;;;;29.77;19.67;;;9.10;99.90;;;;;;9944809;29;20697;-83
2020/12/16 05:13:02;;;;;;;34.73;21.53;;;9.00;99.90;;;;;;9948168;29;20228;-82
2020/12/16 05:18:25;;;;;;;32.90;21.57;;;8.90;99.90;;;;;;9961044;29;20194;-82
2020/12/16 05:23:47;;;;;;;30.17;19.70;;;9.00;99.90;;;;;;9982704;29;20217;-82
2020/12/16 05:29:09;;;;;;;31.73;20.17;;;9.10;99.90;;;;;;9984181;29;20902;-82
2020/12/16 05:34:31;;;;;;;30.37;20.10;;;8.60;99.90;;;;;;9982559;29;20224;-82
2020/12/16 05:39:59;;;;;;;29.50;16.80;;;8.40;99.90;;;;;;9984088;29;20205;-82
2020/12/16 05:45:25;;;;;;;23.53;15.27;;;8.10;99.90;;;;;;9983146;29;20205;-82
2020/12/16 05:50:52;;;;;;;49.23;16.10;;;7.90;99.90;;;;;;9983167;29;20800;-82
2020/12/16 05:56:14;;;;;;;71.77;18.23;;;7.80;99.90;;;;;;9983230;29;20269;-82
2020/12/16 06:01:37;;;;;;;52.83;18.00;;;7.70;99.90;;;;;;9982635;29;20225;-84
2020/12/16 06:06:59;;;;;;;83.27;19.70;;;7.80;99.90;;;;;;9986942;29;20217;-85
2020/12/16 06:12:28;;;;;;;49.33;19.27;;;7.90;99.90;;;;;;9982115;29;20221;-85
2020/12/16 06:17:50;;;;;;;43.00;19.83;;;8.00;99.90;;;;;;9993863;29;20234;-84
2020/12/16 06:23:31;;;;;;;37.80;19.13;;;8.00;99.90;;;;;;9984535;29;20278;-83
2020/12/16 06:28:54;;;;;;;40.33;21.57;;;8.20;99.90;;;;;;9986075;29;20269;-83
2020/12/16 06:34:17;;;;;;;40.17;20.73;;;8.20;99.90;;;;;;10014735;29;20725;-84
2020/12/16 06:39:40;;;;;;;47.10;21.23;;;8.30;99.90;;;;;;10021792;29;20204;-83
2020/12/16 06:45:13;;;;;;;40.90;20.20;;;8.40;99.90;;;;;;10020529;29;20208;-83
2020/12/16 06:50:35;;;;;;;41.77;19.87;;;8.30;99.90;;;;;;10007879;29;20251;-83
2020/12/16 06:56:06;;;;;;;58.57;22.07;;;8.30;99.90;;;;;;9949461;29;20214;-86
2020/12/16 07:01:28;;;;;;;75.83;19.70;;;8.10;99.90;;;;;;9946082;29;20596;-84
2020/12/16 07:06:50;;;;;;;101.37;20.40;;;8.00;99.90;;;;;;9944902;29;20500;-87
2020/12/16 07:12:29;;;;;;;198.03;21.10;;;7.90;99.90;;;;;;9982639;29;20840;-85
2020/12/16 07:18:22;;;;;;;101.47;18.77;;;7.90;99.90;;;;;;9991222;29;20205;-83
2020/12/16 07:23:45;;;;;;;87.30;16.77;;;7.90;99.90;;;;;;9989634;29;20221;-83
2020/12/16 07:29:27;;;;;;;117.17;17.10;;;7.90;99.90;;;;;;9991310;29;20225;-83
2020/12/16 07:34:52;;;;;;;102.70;17.40;;;7.80;99.90;;;;;;9989503;29;20200;-81
2020/12/16 07:40:15;;;;;;;74.80;16.77;;;7.70;99.90;;;;;;9989249;29;20225;-82
2020/12/16 07:45:37;;;;;;;66.03;16.73;;;7.90;99.90;;;;;;9986301;29;20201;-82
2020/12/16 07:51:02;;;;;;;67.77;16.23;;;7.90;99.90;;;;;;9986738;29;20225;-83
2020/12/16 07:56:23;;;;;;;87.27;17.37;;;8.00;99.90;;;;;;9980700;29;20209;-82
2020/12/16 08:01:46;;;;;;;58.40;15.60;;;8.00;99.90;;;;;;9963248;29;20281;-84
2020/12/16 08:07:13;;;;;;;87.53;17.77;;;8.00;99.90;;;;;;9996639;29;20303;-84
2020/12/16 08:12:40;;;;;;;117.50;17.63;;;8.00;99.90;;;;;;9984025;29;20231;-85
2020/12/16 08:18:02;;;;;;;147.30;18.10;;;8.00;99.90;;;;;;10033820;29;20208;-84
2020/12/16 08:23:25;;;;;;;68.53;16.67;;;8.10;99.90;;;;;;10001074;29;20236;-83
2020/12/16 08:28:47;;;;;;;62.33;17.57;;;7.90;99.90;;;;;;10005644;29;20252;-82
2020/12/16 08:34:14;;;;;;;91.17;16.73;;;7.90;99.90;;;;;;10034197;29;20228;-82
2020/12/16 08:39:43;;;;;;;54.83;17.73;;;8.00;99.90;;;;;;10006295;29;20216;-83
2020/12/16 08:45:09;;;;;;;48.70;20.77;;;8.10;99.90;;;;;;9992291;29;20209;-82
2020/12/16 08:50:31;;;;;;;37.47;17.57;;;8.10;99.90;;;;;;9993610;29;20246;-81
2020/12/16 08:55:54;;;;;;;77.47;21.67;;;8.20;99.90;;;;;;9992733;29;20212;-85
2020/12/16 09:01:22;;;;;;;47.77;20.70;;;8.40;99.90;;;;;;10021767;29;20223;-81
2020/12/16 09:06:44;;;;;;;48.77;20.90;;;8.40;99.90;;;;;;9997314;29;20204;-82
2020/12/16 09:12:12;;;;;;;51.13;22.57;;;8.50;99.90;;;;;;9991736;29;20235;-83
2020/12/16 09:17:36;;;;;;;45.63;23.20;;;8.60;99.90;;;;;;10000484;29;20264;-85
2020/12/16 09:22:58;;;;;;;52.17;23.23;;;8.70;99.90;;;;;;10009277;29;20228;-84
2020/12/16 09:28:21;;;;;;;52.07;23.30;;;8.70;99.90;;;;;;9992141;29;20228;-85
2020/12/16 09:33:54;;;;;;;42.67;22.87;;;8.60;99.90;;;;;;9989912;29;20244;-81
2020/12/16 09:39:19;;;;;;;41.03;22.97;;;8.70;99.90;;;;;;9990667;29;20205;-85
2020/12/16 09:44:43;;;;;;;45.80;23.40;;;8.80;99.90;;;;;;9992104;29;20224;-82
2020/12/16 09:50:06;;;;;;;45.67;24.00;;;8.80;99.90;;;;;;9996115;29;20323;-90
2020/12/16 09:55:31;;;;;;;48.40;23.87;;;9.00;99.90;;;;;;9991120;29;20212;-84
2020/12/16 10:00:53;;;;;;;45.87;22.77;;;9.10;99.90;;;;;;9994205;29;20595;-83
2020/12/16 10:06:15;;;;;;;45.73;22.97;;;9.20;99.90;;;;;;9995059;29;20197;-84
2020/12/16 10:11:38;;;;;;;46.37;24.40;;;9.30;99.90;;;;;;10027553;29;20311;-84
2020/12/16 10:17:01;;;;;;;45.73;23.53;;;9.30;99.90;;;;;;10030984;29;20612;-80
2020/12/16 10:22:22;;;;;;;41.53;23.13;;;9.40;99.90;;;;;;10017387;29;21030;-84
2020/12/16 10:27:45;;;;;;;38.87;21.80;;;9.40;99.90;;;;;;9992056;29;20583;-82
2020/12/16 10:33:08;;;;;;;33.30;20.70;;;9.40;99.90;;;;;;9991256;29;20221;-83
2020/12/16 10:38:30;;;;;;;37.80;21.67;;;9.50;99.90;;;;;;9989427;29;20353;-84
2020/12/16 10:43:51;;;;;;;37.63;21.97;;;9.50;99.90;;;;;;9950655;29;20592;-81
2020/12/16 10:49:14;;;;;;;36.87;21.50;;;9.50;99.90;;;;;;9951765;29;20252;-81
2020/12/16 10:54:36;;;;;;;33.63;20.33;;;9.50;99.90;;;;;;9993421;29;20701;-84
2020/12/16 10:59:59;;;;;;;37.20;20.93;;;9.50;99.90;;;;;;9997404;29;20541;-83
2020/12/16 11:05:21;;;;;;;34.70;19.57;;;9.40;99.90;;;;;;9958254;29;20258;-81
2020/12/16 11:10:49;;;;;;;33.83;20.60;;;9.40;99.90;;;;;;10002197;29;20224;-84
2020/12/16 11:16:12;;;;;;;31.70;20.13;;;9.40;99.90;;;;;;9974437;29;20201;-84
2020/12/16 11:21:38;;;;;;;34.30;21.50;;;9.50;99.90;;;;;;9993052;29;20752;-83
2020/12/16 11:27:00;;;;;;;32.80;20.47;;;9.50;99.90;;;;;;10024101;29;20197;-85
2020/12/16 11:32:23;;;;;;;29.67;20.50;;;9.60;99.90;;;;;;10024449;29;20225;-83
2020/12/16 11:37:45;;;;;;;30.10;19.43;;;9.90;99.90;;;;;;9992885;29;20194;-84
2020/12/16 11:43:07;;;;;;;31.80;20.53;;;9.70;99.90;;;;;;9991961;29;20252;-83
2020/12/16 11:48:29;;;;;;;29.10;19.47;;;9.70;99.90;;;;;;9986948;29;20233;-84
2020/12/16 11:53:52;;;;;;;31.70;24.35;;;9.80;99.90;;;;;;9989983;29;20427;-87
2020/12/16 11:59:13;;;;;;;30.40;20.40;;;9.80;99.90;;;;;;9995097;29;20265;-85
2020/12/16 12:04:36;;;;;;;27.70;17.80;;;9.80;99.90;;;;;;9994342;29;20221;-85
2020/12/16 12:09:58;;;;;;;27.80;18.03;;;9.70;99.90;;;;;;9993765;29;20233;-86
2020/12/16 12:15:20;;;;;;;30.17;20.03;;;9.90;99.90;;;;;;10003434;29;20223;-85
2020/12/16 12:20:43;;;;;;;33.83;20.53;;;9.90;99.90;;;;;;10022982;29;20230;-85
2020/12/16 12:26:06;;;;;;;29.10;19.23;;;10.00;99.90;;;;;;9993172;29;20236;-84
2020/12/16 12:31:28;;;;;;;27.53;18.20;;;10.00;99.90;;;;;;9990674;29;20234;-84
2020/12/16 12:36:50;;;;;;;26.00;17.10;;;10.00;99.90;;;;;;9991908;29;20207;-85
2020/12/16 12:42:12;;;;;;;24.40;17.33;;;10.00;99.90;;;;;;9989302;29;20221;-85
2020/12/16 12:47:34;;;;;;;25.47;17.23;;;10.10;99.90;;;;;;9986916;29;20229;-84
2020/12/16 12:52:56;;;;;;;25.17;17.50;;;10.00;99.90;;;;;;9989268;29;20233;-86
2020/12/16 12:58:18;;;;;;;25.00;16.47;;;10.00;99.90;;;;;;9974385;29;20819;-81
2020/12/16 13:03:40;;;;;;;22.27;15.80;;;10.00;99.90;;;;;;9952746;29;20494;-82
2020/12/16 13:09:03;;;;;;;26.63;16.67;;;10.30;99.90;;;;;;9992013;29;20218;-83
2020/12/16 13:14:25;;;;;;;23.63;16.40;;;10.30;99.90;;;;;;10000306;29;20233;-84
2020/12/16 13:19:47;;;;;;;22.87;15.93;;;10.40;99.90;;;;;;9991307;29;20731;-80
2020/12/16 13:25:09;;;;;;;22.77;15.33;;;10.30;99.90;;;;;;9990155;29;20239;-82
2020/12/16 13:30:31;;;;;;;26.20;16.90;;;10.30;99.90;;;;;;10016794;29;20227;-81
2020/12/16 13:35:53;;;;;;;21.97;15.53;;;10.60;99.90;;;;;;9961514;29;20592;-80
2020/12/16 13:41:16;;;;;;;23.70;15.83;;;10.30;99.90;;;;;;10020815;29;20224;-82
2020/12/16 13:46:39;;;;;;;23.47;15.83;;;10.10;99.90;;;;;;10023706;29;20210;-83
2020/12/16 13:52:01;;;;;;;23.93;16.40;;;10.10;99.90;;;;;;9988590;29;20241;-83
2020/12/16 13:57:23;;;;;;;23.23;15.97;;;10.10;99.90;;;;;;9988129;29;20279;-81
2020/12/16 14:02:45;;;;;;;22.97;16.13;;;9.90;99.90;;;;;;9993336;29;20693;-81
2020/12/16 14:08:07;;;;;;;28.67;17.10;;;9.80;99.90;;;;;;10018892;29;20604;-83
2020/12/16 14:13:30;;;;;;;26.40;16.67;;;9.80;99.90;;;;;;9998567;29;20228;-83
2020/12/16 14:18:52;;;;;;;26.83;17.57;;;9.80;99.90;;;;;;10007156;29;20284;-82
2020/12/16 14:24:14;;;;;;;26.83;17.20;;;9.70;99.90;;;;;;10009344;29;20314;-83
2020/12/16 14:29:36;;;;;;;32.93;19.03;;;9.90;99.90;;;;;;9984790;29;20233;-82
2020/12/16 14:34:58;;;;;;;27.97;17.90;;;9.70;99.90;;;;;;9984823;29;20752;-85
2020/12/16 14:40:20;;;;;;;27.20;17.77;;;9.70;99.90;;;;;;9991709;29;20235;-83
2020/12/16 14:45:42;;;;;;;29.17;18.80;;;9.70;99.90;;;;;;9996490;29;20621;-84
2020/12/16 14:51:04;;;;;;;27.83;18.40;;;9.60;99.90;;;;;;9991167;29;20708;-83
2020/12/16 14:56:26;;;;;;;30.23;18.23;;;9.60;99.90;;;;;;9999905;29;20212;-83
2020/12/16 15:01:49;;;;;;;32.90;18.43;;;9.50;99.90;;;;;;9988942;29;20217;-84
2020/12/16 15:07:12;;;;;;;27.93;18.60;;;9.50;99.90;;;;;;9993451;29;20261;-83
2020/12/16 15:12:34;;;;;;;30.77;19.50;;;9.40;99.90;;;;;;9985630;29;20251;-84
2020/12/16 15:17:56;;;;;;;31.80;20.20;;;9.30;99.90;;;;;;9983831;29;20217;-84
2020/12/16 15:23:18;;;;;;;31.47;19.07;;;9.30;99.90;;;;;;9984055;29;20220;-83
2020/12/16 15:28:40;;;;;;;34.93;20.93;;;9.30;99.90;;;;;;9984072;29;20285;-84
2020/12/16 15:34:03;;;;;;;30.33;20.37;;;9.30;99.90;;;;;;9983542;29;20229;-84
2020/12/16 15:39:24;;;;;;;30.13;19.17;;;9.20;99.90;;;;;;9994810;29;20220;-83
2020/12/16 15:44:47;;;;;;;33.10;20.07;;;9.10;99.90;;;;;;9998866;29;20244;-83
2020/12/16 15:50:10;;;;;;;35.90;20.53;;;9.00;99.90;;;;;;9991577;29;20229;-82
2020/12/16 15:55:32;;;;;;;32.53;20.03;;;9.00;99.90;;;;;;9993314;29;20193;-85
2020/12/16 16:00:53;;;;;;;34.00;20.27;;;9.00;99.90;;;;;;9991077;29;20587;-85
2020/12/16 16:06:16;;;;;;;34.63;20.43;;;9.00;99.90;;;;;;9992433;29;20205;-85
2020/12/16 16:12:29;;;;;;;33.90;20.30;;;8.80;99.90;;;;;;9992378;29;20589;-83
2020/12/16 16:17:50;;;;;;;38.00;22.10;;;8.80;99.90;;;;;;9987638;29;20205;-86
2020/12/16 16:23:13;;;;;;;40.23;24.67;;;8.80;99.90;;;;;;9992005;29;20229;-85
2020/12/16 16:28:35;;;;;;;40.33;23.37;;;8.80;99.90;;;;;;9987653;29;20276;-84
2020/12/16 16:33:57;;;;;;;41.67;23.43;;;8.80;99.90;;;;;;9991737;29;20252;-85
2020/12/16 16:39:20;;;;;;;40.53;23.90;;;8.80;99.90;;;;;;9988169;29;21247;-85
2020/12/16 16:44:42;;;;;;;43.93;24.70;;;8.90;99.90;;;;;;9987679;29;20946;-86
2020/12/16 16:50:04;;;;;;;40.77;24.47;;;8.90;99.90;;;;;;10003718;29;20286;-83
2020/12/16 16:55:27;;;;;;;42.63;24.77;;;8.80;99.90;;;;;;9996471;29;20212;-84
2020/12/16 17:00:48;;;;;;;42.40;25.87;;;8.90;99.90;;;;;;9982227;29;20248;-84
2020/12/16 17:06:10;;;;;;;43.57;26.83;;;8.90;99.90;;;;;;9985162;29;20198;-84
2020/12/16 17:11:38;;;;;;;43.97;28.10;;;9.00;99.90;;;;;;9992832;29;20232;-84
2020/12/16 17:16:59;;;;;;;42.43;25.73;;;9.00;99.90;;;;;;10022062;29;20227;-83
2020/12/16 17:22:21;;;;;;;45.50;26.40;;;9.00;99.90;;;;;;10015377;29;20706;-83
2020/12/16 17:27:45;;;;;;;44.40;26.47;;;9.10;99.90;;;;;;9964131;29;20278;-83
2020/12/16 17:33:07;;;;;;;38.80;25.37;;;9.20;99.90;;;;;;9985864;29;20220;-84
2020/12/16 17:38:29;;;;;;;40.30;25.03;;;9.20;99.90;;;;;;9985118;29;20208;-85
2020/12/16 17:43:52;;;;;;;39.37;25.23;;;9.20;99.90;;;;;;9983164;29;20233;-83
2020/12/16 17:49:14;;;;;;;39.87;26.37;;;9.30;99.90;;;;;;9987013;29;20217;-84
2020/12/16 17:54:36;;;;;;;37.30;25.23;;;9.40;99.90;;;;;;9986461;29;20228;-84
2020/12/16 17:59:59;;;;;;;37.63;24.33;;;9.30;99.90;;;;;;9986064;29;20219;-84
2020/12/16 18:05:21;;;;;;;41.10;26.60;;;9.30;99.90;;;;;;9986752;29;20205;-84
2020/12/16 18:10:43;;;;;;;45.90;27.40;;;9.30;99.90;;;;;;9994960;29;20285;-84
2020/12/16 18:16:05;;;;;;;41.10;27.30;;;9.20;99.90;;;;;;9987083;29;20198;-84
2020/12/16 18:21:28;;;;;;;41.53;28.33;;;9.30;99.90;;;;;;10017339;29;20338;-83
2020/12/16 18:26:50;;;;;;;42.33;27.97;;;9.20;99.90;;;;;;9975256;29;20283;-84
2020/12/16 18:32:13;;;;;;;43.70;29.00;;;9.10;99.90;;;;;;9986588;29;20232;-85
2020/12/16 18:37:37;;;;;;;53.67;31.90;;;9.10;99.90;;;;;;9996930;29;20213;-86
2020/12/16 18:43:01;;;;;;;46.47;30.97;;;9.10;99.90;;;;;;9986916;29;20264;-85
2020/12/16 18:48:24;;;;;;;50.27;30.67;;;9.10;99.90;;;;;;9985863;29;20217;-84
2020/12/16 18:53:46;;;;;;;51.23;32.27;;;9.00;99.90;;;;;;9981985;29;20267;-87
2020/12/16 18:59:09;;;;;;;54.10;34.00;;;9.00;99.90;;;;;;9985894;29;20671;-83
2020/12/16 19:04:32;;;;;;;57.87;33.50;;;8.90;99.90;;;;;;9988233;29;20620;-83
2020/12/16 19:09:54;;;;;;;54.77;33.07;;;9.00;99.90;;;;;;10019425;29;20307;-84
2020/12/16 19:15:17;;;;;;;59.00;35.10;;;9.00;99.90;;;;;;9998393;29;20610;-85
2020/12/16 19:20:39;;;;;;;58.80;34.87;;;9.00;99.90;;;;;;9970155;29;20217;-83
2020/12/16 19:26:01;;;;;;;54.93;34.03;;;9.00;99.90;;;;;;9991732;29;20209;-85
2020/12/16 19:31:23;;;;;;;54.33;34.20;;;9.00;99.90;;;;;;10036692;29;20226;-84
2020/12/16 19:36:48;;;;;;;57.47;34.20;;;9.10;99.90;;;;;;9976545;29;20209;-85
2020/12/16 19:42:10;;;;;;;54.23;33.03;;;9.10;99.90;;;;;;9984946;29;20221;-82
2020/12/16 19:47:31;;;;;;;48.40;31.13;;;9.10;99.90;;;;;;9987570;29;20236;-83
2020/12/16 19:52:54;;;;;;;52.03;32.53;;;9.10;99.90;;;;;;9994358;29;20221;-85
2020/12/16 19:58:16;;;;;;;51.90;32.47;;;9.10;99.90;;;;;;9972509;29;20202;-84
2020/12/16 20:03:38;;;;;;;46.37;30.23;;;9.20;99.90;;;;;;9990568;29;20251;-83
2020/12/16 20:09:01;;;;;;;46.93;29.00;;;9.20;99.90;;;;;;10010697;29;20223;-83
2020/12/16 20:14:23;;;;;;;48.90;29.63;;;9.20;99.90;;;;;;9988688;29;20253;-85
2020/12/16 20:19:45;;;;;;;46.17;27.77;;;9.20;99.90;;;;;;10012880;29;20612;-86
2020/12/16 20:25:08;;;;;;;42.73;27.57;;;9.20;99.90;;;;;;10024944;29;20204;-84
2020/12/16 20:30:30;;;;;;;41.27;28.17;;;9.10;99.90;;;;;;10005725;29;20232;-85
2020/12/16 20:35:53;;;;;;;40.67;26.83;;;9.10;99.90;;;;;;9986610;29;20583;-84
2020/12/16 20:41:17;;;;;;;40.23;26.87;;;9.10;99.90;;;;;;9989600;29;20229;-85
2020/12/16 20:46:41;;;;;;;39.23;25.43;;;9.00;99.90;;;;;;9990280;29;20213;-81
2020/12/16 20:52:03;;;;;;;40.57;25.90;;;8.90;99.90;;;;;;9965879;29;20731;-87
2020/12/16 20:57:26;;;;;;;44.27;27.43;;;8.70;99.90;;;;;;9988597;29;20242;-83
2020/12/16 21:02:48;;;;;;;41.57;25.93;;;8.60;99.90;;;;;;9986528;29;20922;-82
2020/12/16 21:08:10;;;;;;;46.87;27.57;;;8.60;99.90;;;;;;10003015;29;20235;-81
2020/12/16 21:13:33;;;;;;;45.77;27.23;;;8.50;99.90;;;;;;10004800;29;20378;-81
2020/12/16 21:18:55;;;;;;;40.80;26.90;;;8.40;99.90;;;;;;9980836;29;20753;-81
2020/12/16 21:24:17;;;;;;;44.93;26.17;;;8.30;99.90;;;;;;9983902;29;20574;-84
2020/12/16 21:29:40;;;;;;;47.03;28.23;;;8.40;99.90;;;;;;9980656;29;20233;-82
2020/12/16 21:35:04;;;;;;;41.63;24.70;;;8.30;99.90;;;;;;9982755;29;20204;-82
2020/12/16 21:40:26;;;;;;;45.00;26.67;;;8.30;99.90;;;;;;9980059;29;20229;-83
2020/12/16 21:45:49;;;;;;;45.17;26.70;;;8.30;99.90;;;;;;9967253;29;20284;-82
2020/12/16 21:51:11;;;;;;;41.57;25.73;;;8.30;99.90;;;;;;9969160;29;20225;-83
2020/12/16 21:56:33;;;;;;;39.80;24.93;;;8.40;99.90;;;;;;9968506;29;20204;-81
2020/12/16 22:01:56;;;;;;;43.50;26.00;;;8.40;99.90;;;;;;9985716;29;20225;-82
2020/12/16 22:07:18;;;;;;;40.80;25.30;;;8.40;99.90;;;;;;10023453;29;20212;-80
2020/12/16 22:12:43;;;;;;;46.37;25.97;;;8.20;99.90;;;;;;9994378;29;20241;-82
2020/12/16 22:18:05;;;;;;;43.60;27.03;;;8.20;99.90;;;;;;9994986;29;20200;-82
2020/12/16 22:23:27;;;;;;;43.53;26.63;;;8.10;99.90;;;;;;10011165;29;20224;-82
2020/12/16 22:28:48;;;;;;;43.53;26.20;;;8.00;99.90;;;;;;10023914;29;20564;-81
2020/12/16 22:34:11;;;;;;;43.37;26.03;;;7.90;99.90;;;;;;10021908;29;20215;-80
2020/12/16 22:39:33;;;;;;;43.07;26.73;;;7.90;99.90;;;;;;10022998;29;20575;-80
2020/12/16 22:44:54;;;;;;;40.50;26.00;;;8.00;99.90;;;;;;9984467;29;20289;-80
2020/12/16 22:50:17;;;;;;;44.50;26.60;;;8.00;99.90;;;;;;9972298;29;20229;-81
2020/12/16 22:55:39;;;;;;;39.70;25.23;;;8.00;99.90;;;;;;9968622;29;20766;-80
2020/12/16 23:01:01;;;;;;;42.87;24.73;;;7.90;99.90;;;;;;9960234;29;20813;-81
2020/12/16 23:06:24;;;;;;;41.70;25.30;;;7.80;99.90;;;;;;9947737;29;20220;-81
2020/12/16 23:11:46;;;;;;;38.70;23.73;;;7.80;99.90;;;;;;9979119;29;20384;-81
2020/12/16 23:17:09;;;;;;;39.27;24.10;;;7.70;99.90;;;;;;9990836;29;20287;-82
2020/12/16 23:22:32;;;;;;;43.53;25.37;;;7.60;99.90;;;;;;9958386;29;20218;-82
2020/12/16 23:27:54;;;;;;;38.30;24.00;;;7.50;99.90;;;;;;9980293;29;20193;-81
2020/12/16 23:33:16;;;;;;;39.87;22.87;;;7.50;99.90;;;;;;9955770;29;20253;-81
2020/12/16 23:38:38;;;;;;;33.80;22.83;;;7.50;99.90;;;;;;9975848;29;20213;-82
2020/12/16 23:44:00;;;;;;;37.13;23.40;;;7.50;99.90;;;;;;9978813;29;20294;-82
2020/12/16 23:49:22;;;;;;;33.73;21.53;;;7.50;99.90;;;;;;9985855;29;20229;-82
2020/12/16 23:54:44;;;;;;;34.73;21.10;;;7.50;99.90;;;;;;9983954;29;20221;-82
